Time;durP1;ratioP1;P1;durP2;ratioP2;P2;SDS_P1;SDS_P2;PMS_P1;PMS_P2;Temp;Humidity;BMP_temperature;BMP_pressure;BME280_temperature;BME280_humidity;BME280_pressure;Samples;Min_cycle;Max_cycle;Signal;HPM_P1;HPM_P2
2022/05/26 00:02:23;;;;;;;6.20;2.67;;;;;;;13.05;63.44;100957.75;7399285;19;20014;-70
2022/05/26 00:04:51;;;;;;;5.03;2.50;;;;;;;13.07;63.27;100958.59;7398863;19;20018;-70
2022/05/26 00:07:20;;;;;;;3.78;2.40;;;;;;;13.09;63.33;100951.50;7398927;19;20019;-70
2022/05/26 00:09:50;;;;;;;4.43;2.90;;;;;;;13.12;63.14;100951.41;7397680;19;20107;-70
2022/05/26 00:12:19;;;;;;;6.07;3.20;;;;;;;13.15;63.13;100953.94;7399048;19;20023;-70
2022/05/26 00:14:48;;;;;;;6.75;3.20;;;;;;;13.17;63.05;100946.00;7398177;19;20022;-70
2022/05/26 00:17:16;;;;;;;5.57;3.25;;;;;;;13.20;62.99;100952.06;7398483;19;20026;-70
2022/05/26 00:19:44;;;;;;;4.18;3.17;;;;;;;13.23;62.76;100955.50;7396753;19;20022;-70
2022/05/26 00:22:12;;;;;;;3.42;2.85;;;;;;;13.25;62.57;100954.53;7398504;19;20029;-70
2022/05/26 00:24:41;;;;;;;4.25;3.03;;;;;;;13.27;62.39;100958.00;7398294;19;20014;-70
2022/05/26 00:27:17;;;;;;;5.03;3.35;;;;;;;13.30;62.39;100954.41;7398421;19;20023;-70
2022/05/26 00:29:46;;;;;;;4.60;2.80;;;;;;;13.31;62.03;100956.16;7397302;19;20389;-70
2022/05/26 00:32:14;;;;;;;4.90;2.53;;;;;;;13.29;61.87;100948.25;7394858;19;20384;-70
2022/05/26 00:34:42;;;;;;;2.88;2.30;;;;;;;13.35;61.79;100956.00;7397523;19;20481;-70
2022/05/26 00:37:11;;;;;;;7.05;2.10;;;;;;;13.34;61.65;100946.38;7398485;19;20018;-70
2022/05/26 00:39:40;;;;;;;2.70;1.92;;;;;;;13.39;61.60;100954.16;7396452;19;20028;-69
2022/05/26 00:42:12;;;;;;;4.15;2.00;;;;;;;13.39;61.57;100951.53;7395743;19;20023;-69
2022/05/26 00:44:40;;;;;;;5.32;1.50;;;;;;;13.40;61.42;100953.25;7397645;19;20450;-69
2022/05/26 00:47:13;;;;;;;2.95;1.50;;;;;;;13.40;61.25;100955.91;7396045;19;20011;-69
2022/05/26 00:49:48;;;;;;;2.27;1.60;;;;;;;13.42;61.28;100955.84;7396226;19;20014;-69
2022/05/26 00:52:20;;;;;;;3.35;1.80;;;;;;;13.41;61.13;100951.47;7396483;19;20022;-69
2022/05/26 00:54:51;;;;;;;3.80;1.95;;;;;;;13.41;61.21;100951.47;7396381;19;20022;-69
2022/05/26 00:57:25;;;;;;;2.53;1.48;;;;;;;13.41;61.20;100951.47;7398041;19;20018;-69
2022/05/26 00:59:57;;;;;;;7.43;2.50;;;;;;;13.41;60.96;100957.63;7396288;19;20039;-69
2022/05/26 01:02:32;;;;;;;3.28;1.80;;;;;;;13.41;60.84;100959.38;7395291;19;20501;-69
2022/05/26 01:05:04;;;;;;;6.18;1.85;;;;;;;13.41;60.62;100951.47;7397920;19;20021;-69
2022/05/26 01:07:36;;;;;;;2.35;1.98;;;;;;;13.41;60.69;100962.91;7397191;19;20481;-69
2022/05/26 01:10:05;;;;;;;1.83;1.70;;;;;;;13.42;60.46;100959.34;7395701;19;20014;-69
2022/05/26 01:12:36;;;;;;;2.70;1.83;;;;;;;13.43;60.37;100960.22;7395536;19;20018;-69
2022/05/26 01:15:08;;;;;;;3.33;1.92;;;;;;;13.42;60.47;100959.34;7397702;19;20026;-69
2022/05/26 01:17:45;;;;;;;1.77;1.35;;;;;;;13.42;60.31;100956.72;7397240;19;20018;-69
2022/05/26 01:20:52;;;;;;;2.63;1.60;;;;;;;13.43;60.33;100954.94;7395680;19;20035;-69
2022/05/26 01:23:53;;;;;;;2.63;1.23;;;;;;;13.42;60.05;100958.47;7392931;19;20477;-69
2022/05/26 01:26:47;;;;;;;1.48;1.17;;;;;;;13.43;60.25;100958.41;7396845;19;20018;-69
2022/05/26 01:29:40;;;;;;;;;;;;;;;13.43;60.05;100961.06;7397252;19;20035;-69
2022/05/26 01:32:16;;;;;;;2.72;1.85;;;;;;;13.42;60.09;100956.72;7394592;19;19911;-69
2022/05/26 01:34:55;;;;;;;1.73;1.23;;;;;;;13.42;60.07;100959.34;7396806;19;20014;-69
2022/05/26 01:37:33;;;;;;;2.55;1.35;;;;;;;13.42;60.12;100962.00;7396594;19;20035;-69
2022/05/26 01:40:09;;;;;;;2.55;1.45;;;;;;;13.44;60.06;100960.16;7394600;19;20022;-69
2022/05/26 01:42:45;;;;;;;5.03;1.35;;;;;;;13.42;60.18;100948.81;7396159;19;20022;-69
2022/05/26 01:45:26;;;;;;;2.70;1.45;;;;;;;13.44;60.17;100954.03;7394804;19;20031;-69
2022/05/26 01:48:03;;;;;;;1.85;1.45;;;;;;;13.43;60.11;100953.16;7396346;19;20035;-69
2022/05/26 01:50:45;;;;;;;5.00;1.50;;;;;;;13.43;60.13;100947.88;7393799;19;20488;-69
2022/05/26 01:53:30;;;;;;;2.22;1.33;;;;;;;13.44;60.02;100954.03;7396151;19;20036;-69
2022/05/26 01:56:04;;;;;;;1.70;1.20;;;;;;;13.42;60.11;100943.53;7394497;19;20035;-69
2022/05/26 01:58:36;;;;;;;5.43;1.75;;;;;;;13.41;59.93;100952.34;7395201;19;20496;-69
2022/05/26 02:01:12;;;;;;;1.98;1.23;;;;;;;13.40;60.15;100952.41;7395968;19;20027;-69
2022/05/26 02:03:46;;;;;;;1.95;1.20;;;;;;;13.38;60.32;100951.56;7395144;19;20435;-69
2022/05/26 02:06:19;;;;;;;4.35;1.27;;;;;;;13.36;60.29;100948.97;7395563;19;20022;-69
2022/05/26 02:08:53;;;;;;;2.83;1.48;;;;;;;13.35;60.32;100952.50;7395439;19;20082;-69
2022/05/26 02:11:24;;;;;;;5.07;1.38;;;;;;;13.31;60.48;100949.09;7395406;19;20040;-69
2022/05/26 02:13:55;;;;;;;2.35;1.30;;;;;;;13.31;60.67;100953.50;7394392;19;20037;-69
2022/05/26 02:16:30;;;;;;;2.75;1.30;;;;;;;13.29;60.56;100952.69;7393151;19;20477;-69
2022/05/26 02:19:08;;;;;;;2.35;1.38;;;;;;;13.27;60.71;100951.84;7393478;19;20043;-69
2022/05/26 02:21:41;;;;;;;2.60;1.48;;;;;;;13.24;60.93;100958.06;7394651;19;20542;-69
2022/05/26 02:24:15;;;;;;;3.55;1.25;;;;;;;13.23;61.04;100963.41;7395253;19;20018;-69
2022/05/26 02:26:43;;;;;;;1.40;1.10;;;;;;;13.20;60.89;100962.59;7395388;19;20022;-69
2022/05/26 02:31:55;;;;;;;1.85;1.25;;;;;;;13.17;61.19;100953.91;7394454;19;20369;-69
2022/05/26 02:34:27;;;;;;;7.85;1.67;;;;;;;13.17;61.14;100962.69;7393297;19;20032;-69
2022/05/26 02:36:59;;;;;;;2.20;1.48;;;;;;;13.12;61.29;100959.31;7395003;19;20032;-69
2022/05/26 02:39:28;;;;;;;1.52;1.27;;;;;;;13.16;61.11;100965.34;7392800;19;20022;-69
2022/05/26 02:41:58;;;;;;;2.45;1.27;;;;;;;13.15;61.33;100966.25;7392627;19;20031;-69
2022/05/26 02:44:28;;;;;;;2.00;1.42;;;;;;;13.15;61.37;100958.34;7393068;19;20014;-69
2022/05/26 02:47:11;;;;;;;1.90;1.30;;;;;;;13.14;61.52;100962.78;7394272;19;20026;-69
2022/05/26 02:49:56;;;;;;;3.83;1.70;;;;;;;13.13;61.33;100963.69;7392716;19;20108;-69
2022/05/26 02:52:30;;;;;;;2.05;1.58;;;;;;;13.12;61.47;100964.59;7394682;19;20019;-69
2022/05/26 02:55:10;;;;;;;4.43;1.60;;;;;;;13.13;61.42;100961.03;7393916;19;20506;-69
2022/05/26 02:57:43;;;;;;;2.22;1.40;;;;;;;13.13;61.37;100962.78;7398542;19;20031;-69
2022/05/26 03:00:17;;;;;;;2.10;1.13;;;;;;;13.14;61.40;100965.41;7399907;19;20127;-69
2022/05/26 03:02:54;;;;;;;1.83;1.20;;;;;;;13.14;61.44;100964.53;7399001;19;20418;-69
2022/05/26 03:05:30;;;;;;;1.77;1.23;;;;;;;13.13;61.70;100961.03;7400911;19;20477;-69
2022/05/26 03:08:02;;;;;;;1.42;1.20;;;;;;;13.13;61.66;100965.44;7398963;19;20022;-69
2022/05/26 03:10:32;;;;;;;2.13;1.42;;;;;;;13.12;61.61;100969.84;7399048;19;20082;-69
2022/05/26 03:13:02;;;;;;;3.50;1.67;;;;;;;13.14;61.63;100970.69;7401418;19;20023;-69
2022/05/26 03:15:31;;;;;;;6.13;1.63;;;;;;;13.13;61.68;100970.69;7400814;19;20023;-69
2022/05/26 03:18:01;;;;;;;5.25;1.52;;;;;;;13.13;61.75;100968.94;7400766;19;20037;-69
2022/05/26 03:20:32;;;;;;;2.17;1.40;;;;;;;13.15;61.58;100966.25;7399457;19;20032;-68
2022/05/26 03:23:00;;;;;;;2.58;1.40;;;;;;;13.15;61.43;100969.75;7401258;19;20018;-69
2022/05/26 03:25:28;;;;;;;2.33;1.08;;;;;;;13.15;61.42;100967.13;7400659;19;20018;-69
2022/05/26 03:27:56;;;;;;;3.63;1.50;;;;;;;13.17;61.81;100969.72;7397556;19;20422;-69
2022/05/26 03:30:24;;;;;;;6.05;1.40;;;;;;;13.18;61.34;100971.44;7398623;19;20040;-69
2022/05/26 03:32:52;;;;;;;3.20;1.40;;;;;;;13.20;61.37;100967.00;7397068;19;20033;-69
2022/05/26 03:40:58;;;;;;;3.10;1.50;;;;;;;13.26;61.20;100960.69;7397991;19;20021;-69
2022/05/26 03:43:31;;;;;;;1.55;1.10;;;;;;;13.28;61.18;100964.13;7400265;19;20014;-69
2022/05/26 03:46:00;;;;;;;1.87;1.03;;;;;;;13.30;61.09;100965.81;7400409;19;20025;-69
2022/05/26 03:48:29;;;;;;;1.83;1.10;;;;;;;13.32;60.76;100978.94;7399909;19;20042;-69
2022/05/26 03:50:58;;;;;;;3.53;0.80;;;;;;;13.34;60.51;100970.09;7396970;19;20607;-69
2022/05/26 03:53:29;;;;;;;4.20;1.40;;;;;;;13.38;60.48;100970.88;7399758;19;20014;-69
2022/05/26 03:55:57;;;;;;;0.85;0.70;;;;;;;13.43;60.06;100974.25;7399408;19;20516;-69
2022/05/26 03:58:25;;;;;;;2.03;0.90;;;;;;;13.49;59.90;100979.31;7399593;19;20022;-69
2022/05/26 04:00:53;;;;;;;0.98;0.80;;;;;;;13.57;59.41;100980.88;7397036;19;20021;-69
2022/05/26 04:03:22;;;;;;;3.13;1.30;;;;;;;13.65;59.12;100981.53;7399524;19;20022;-69
2022/05/26 04:05:50;;;;;;;4.00;1.10;;;;;;;13.72;58.90;100988.31;7396832;19;20018;-69
2022/05/26 04:08:18;;;;;;;3.28;1.02;;;;;;;13.81;58.53;100990.69;7398005;19;20018;-69
2022/05/26 04:10:49;;;;;;;2.60;0.82;;;;;;;13.90;58.37;100980.72;7397006;19;20018;-69
2022/05/26 04:13:17;;;;;;;1.20;0.75;;;;;;;13.97;58.42;100982.28;7399501;19;20026;-69
2022/05/26 04:15:45;;;;;;;2.13;0.80;;;;;;;14.04;57.99;100986.44;7398917;19;20035;-69
2022/05/26 04:18:14;;;;;;;2.85;1.00;;;;;;;14.10;57.84;100991.53;7398866;19;20035;-69
2022/05/26 04:20:42;;;;;;;3.15;0.90;;;;;;;14.16;57.52;100991.28;7396312;19;20469;-69
2022/05/26 04:23:10;;;;;;;4.90;0.80;;;;;;;14.23;57.34;100991.97;7398757;19;20019;-69
2022/05/26 04:25:38;;;;;;;3.58;0.93;;;;;;;14.29;57.03;100990.91;7396620;19;20019;-69
2022/05/26 04:28:09;;;;;;;2.15;0.70;;;;;;;14.34;56.97;100989.84;7396228;19;20394;-69
2022/05/26 04:30:37;;;;;;;3.15;0.88;;;;;;;14.42;56.78;100986.06;7396393;19;20473;-69
2022/05/26 04:33:06;;;;;;;1.50;0.80;;;;;;;14.47;56.42;100992.09;7397072;19;20010;-69
2022/05/26 04:35:34;;;;;;;2.30;0.90;;;;;;;14.54;56.48;100990.09;7398554;19;20027;-69
2022/05/26 04:38:02;;;;;;;2.30;0.88;;;;;;;14.59;56.50;100990.78;7398539;19;20015;-69
2022/05/26 04:40:30;;;;;;;2.58;0.93;;;;;;;14.65;56.69;100993.25;7396137;19;20428;-69
2022/05/26 04:42:58;;;;;;;2.55;1.10;;;;;;;14.68;56.65;100987.84;7398248;19;20026;-69
2022/05/26 04:45:30;;;;;;;3.85;1.08;;;;;;;14.71;56.91;100994.78;7398005;19;20018;-69
2022/05/26 04:47:58;;;;;;;1.67;0.82;;;;;;;14.72;56.67;100997.41;7398188;19;20406;-70
2022/05/26 04:50:26;;;;;;;2.97;1.20;;;;;;;14.73;56.76;100996.47;7396312;19;20027;-69
2022/05/26 04:52:54;;;;;;;1.17;0.95;;;;;;;14.75;56.66;101004.34;7395860;19;20023;-69
2022/05/26 04:55:23;;;;;;;2.20;0.88;;;;;;;14.77;56.48;101002.50;7395646;19;20019;-69
2022/05/26 04:57:52;;;;;;;2.28;1.10;;;;;;;14.79;56.70;101005.97;7397493;19;20027;-69
2022/05/26 05:00:21;;;;;;;1.67;0.70;;;;;;;14.82;56.44;101000.56;7395763;19;20019;-69
2022/05/26 05:02:53;;;;;;;4.93;1.17;;;;;;;14.85;56.17;101005.75;7397259;19;20031;-69
2022/05/26 05:05:22;;;;;;;3.03;1.10;;;;;;;14.89;56.37;101009.16;7397293;19;20086;-69
2022/05/26 05:07:50;;;;;;;2.25;0.60;;;;;;;14.93;56.39;101002.84;7396687;19;20015;-69
2022/05/26 05:10:18;;;;;;;1.67;0.63;;;;;;;14.98;56.44;101012.31;7396031;19;20022;-69
2022/05/26 05:12:48;;;;;;;1.58;0.80;;;;;;;15.05;56.21;101017.38;7397089;19;20035;-69
2022/05/26 05:15:21;;;;;;;1.73;0.93;;;;;;;15.10;56.37;101013.66;7395096;19;20018;-69
2022/05/26 05:18:14;;;;;;;3.60;1.17;;;;;;;15.18;56.00;101021.31;7396862;19;20341;-68
2022/05/26 05:20:43;;;;;;;3.05;0.90;;;;;;;15.21;55.83;101018.53;7391603;19;20019;-69
2022/05/26 05:23:13;;;;;;;2.38;0.95;;;;;;;15.28;55.74;101019.19;7394853;19;20018;-69
2022/05/26 05:25:44;;;;;;;2.53;0.77;;;;;;;15.32;55.65;101020.78;7397010;19;20011;-69
2022/05/26 05:28:17;;;;;;;1.83;0.90;;;;;;;15.37;55.71;101018.84;7397234;19;20018;-69
2022/05/26 05:30:50;;;;;;;2.50;0.80;;;;;;;15.42;55.50;101038.03;7395229;19;20081;-69
2022/05/26 05:33:33;;;;;;;1.97;0.90;;;;;;;15.46;55.44;101033.50;7394453;19;20014;-69
2022/05/26 05:36:12;;;;;;;1.77;0.80;;;;;;;15.51;55.00;101038.63;7396660;19;20021;-69
2022/05/26 05:38:41;;;;;;;2.50;1.00;;;;;;;15.55;54.95;101037.56;7394868;19;20011;-70
2022/05/26 05:41:11;;;;;;;2.35;0.98;;;;;;;15.58;54.27;101034.81;7394887;19;20031;-69
2022/05/26 05:43:40;;;;;;;3.78;1.13;;;;;;;15.62;54.26;101039.06;7396233;19;20022;-69
2022/05/26 05:46:11;;;;;;;1.67;0.98;;;;;;;15.64;54.03;101030.16;7396203;19;20018;-69
2022/05/26 05:48:43;;;;;;;1.67;0.77;;;;;;;15.70;54.26;101038.78;7396361;19;20082;-69
2022/05/26 05:51:11;;;;;;;1.77;0.90;;;;;;;15.75;54.21;101036.81;7395661;19;20018;-68
2022/05/26 05:53:40;;;;;;;1.27;0.80;;;;;;;15.79;54.16;101033.97;7395945;19;20018;-68
2022/05/26 05:56:08;;;;;;;3.90;1.25;;;;;;;15.83;53.52;101039.19;7395551;19;20508;-69
2022/05/26 05:58:36;;;;;;;1.73;1.10;;;;;;;15.88;53.86;101038.06;7395406;19;20498;-69
2022/05/26 06:01:05;;;;;;;2.88;0.90;;;;;;;15.94;53.90;101048.41;7394809;19;20419;-68
2022/05/26 06:03:35;;;;;;;1.40;0.88;;;;;;;16.00;53.62;101047.34;7395765;19;20090;-70
2022/05/26 06:06:07;;;;;;;2.78;1.10;;;;;;;16.04;53.59;101045.44;7395636;19;20021;-70
2022/05/26 06:08:37;;;;;;;3.42;1.38;;;;;;;16.08;53.55;101044.38;7395214;19;20485;-68
2022/05/26 06:11:05;;;;;;;2.70;1.15;;;;;;;16.09;53.53;101052.25;7393763;19;20015;-69
2022/05/26 06:13:33;;;;;;;5.55;1.40;;;;;;;16.12;53.83;101053.91;7393758;19;20380;-68
2022/05/26 06:16:01;;;;;;;3.20;1.13;;;;;;;16.18;53.57;101044.88;7395213;19;20014;-69
2022/05/26 06:18:29;;;;;;;3.22;0.90;;;;;;;16.23;53.77;101041.09;7393702;19;20013;-69
2022/05/26 06:21:06;;;;;;;4.22;1.70;;;;;;;16.27;53.41;101044.50;7393512;19;20019;-69
2022/05/26 06:23:34;;;;;;;2.90;1.20;;;;;;;16.27;53.57;101053.28;7395523;19;20007;-69
2022/05/26 06:26:02;;;;;;;4.00;1.42;;;;;;;16.32;53.74;101053.09;7395140;19;20465;-70
2022/05/26 06:31:11;;;;;;;4.75;1.58;;;;;;;16.45;53.85;101046.41;7397719;19;20029;-69
2022/05/26 06:39:06;;;;;;;2.33;1.20;;;;;;;16.50;53.38;101040.03;7402068;19;20011;-69
2022/05/26 06:44:15;;;;;;;2.42;1.45;;;;;;;16.59;53.54;101051.13;7402483;19;20010;-68
2022/05/26 06:46:43;;;;;;;3.58;1.70;;;;;;;16.62;53.32;101044.81;7401914;19;20036;-69
2022/05/26 06:49:12;;;;;;;3.05;1.50;;;;;;;16.66;53.82;101074.69;7401223;19;20031;-69
2022/05/26 06:51:43;;;;;;;3.10;1.60;;;;;;;16.70;53.61;101070.97;7401904;19;20394;-69
2022/05/26 06:54:12;;;;;;;4.15;1.83;;;;;;;16.74;53.46;101077.88;7402280;19;20036;-69
2022/05/26 06:56:40;;;;;;;3.70;1.52;;;;;;;16.73;53.77;101074.38;7401719;19;20031;-69
2022/05/26 06:59:09;;;;;;;5.00;1.38;;;;;;;16.75;53.84;101061.91;7400568;19;20399;-70
2022/05/26 07:01:37;;;;;;;4.85;1.40;;;;;;;16.78;54.05;101067.09;7400709;19;20022;-69
2022/05/26 07:04:05;;;;;;;3.78;1.50;;;;;;;16.83;53.86;101069.53;7401557;19;20031;-69
2022/05/26 07:06:33;;;;;;;2.13;1.20;;;;;;;16.90;53.97;101080.75;7401435;19;20039;-70
2022/05/26 07:09:04;;;;;;;4.38;1.88;;;;;;;16.93;54.29;101077.97;7398479;19;20019;-69
2022/05/26 07:11:32;;;;;;;3.00;1.25;;;;;;;16.98;54.00;101077.78;7401580;19;20014;-69
2022/05/26 07:14:00;;;;;;;3.13;1.38;;;;;;;17.02;53.71;101074.94;7398370;19;20018;-69
2022/05/26 07:16:28;;;;;;;2.63;1.17;;;;;;;17.07;53.95;101067.66;7397699;19;20022;-68
2022/05/26 07:18:57;;;;;;;1.95;1.08;;;;;;;17.15;54.07;101083.22;7400295;19;20030;-69
2022/05/26 07:21:25;;;;;;;2.10;1.60;;;;;;;17.20;53.77;101075.91;7397992;19;20028;-68
2022/05/26 07:23:53;;;;;;;1.92;1.15;;;;;;;17.26;53.63;101069.47;7399906;19;20023;-69
2022/05/26 07:26:24;;;;;;;3.55;1.60;;;;;;;17.29;53.80;101082.59;7397441;19;20022;-70
2022/05/26 07:28:52;;;;;;;5.18;1.80;;;;;;;17.32;53.56;101079.81;7400617;19;20018;-69
2022/05/26 07:31:21;;;;;;;4.65;1.95;;;;;;;17.33;53.62;101088.63;7397579;19;20018;-69
2022/05/26 07:33:55;;;;;;;5.05;1.45;;;;;;;17.32;53.27;101095.72;7397070;19;20010;-70
2022/05/26 07:42:00;;;;;;;2.38;1.30;;;;;;;17.41;53.93;101105.06;7398530;19;20357;-69
2022/05/26 07:44:30;;;;;;;4.28;1.70;;;;;;;17.42;53.20;101107.63;7397132;19;20018;-68
2022/05/26 07:46:59;;;;;;;8.00;1.50;;;;;;;17.35;53.50;101121.22;7400319;19;20031;-69
2022/05/26 07:49:27;;;;;;;2.50;1.60;;;;;;;17.29;53.97;101106.47;7398915;19;20019;-67
2022/05/26 07:51:57;;;;;;;3.72;1.65;;;;;;;17.25;54.21;101105.75;7396934;19;20373;-68
2022/05/26 07:54:26;;;;;;;2.03;1.55;;;;;;;17.25;54.28;101115.50;7400132;19;20015;-69
2022/05/26 07:56:57;;;;;;;4.18;1.42;;;;;;;17.21;54.12;101121.84;7398081;19;20015;-70
2022/05/26 07:59:26;;;;;;;2.15;1.50;;;;;;;17.19;54.50;101107.81;7397805;19;20026;-70
2022/05/26 08:01:54;;;;;;;3.75;1.38;;;;;;;17.19;54.61;101121.06;7398039;19;20488;-68
2022/05/26 08:04:23;;;;;;;1.83;1.55;;;;;;;17.19;54.26;101134.31;7399460;19;20018;-69
2022/05/26 08:06:52;;;;;;;2.72;1.52;;;;;;;17.21;54.31;101101.50;7398849;19;20481;-69
2022/05/26 08:09:23;;;;;;;4.47;1.75;;;;;;;17.28;54.26;101114.50;7396607;19;20026;-69
2022/05/26 08:11:51;;;;;;;3.58;1.30;;;;;;;17.32;54.21;101116.94;7397071;19;20022;-70
2022/05/26 08:14:22;;;;;;;3.22;1.80;;;;;;;17.36;54.04;101107.94;7396805;19;20047;-70
2022/05/26 08:16:50;;;;;;;2.97;1.48;;;;;;;17.36;53.78;101134.44;7399053;19;20022;-71
2022/05/26 08:19:20;;;;;;;2.60;1.60;;;;;;;17.39;53.98;101120.19;7397848;19;20022;-71
2022/05/26 08:21:51;;;;;;;6.05;1.70;;;;;;;17.46;53.87;101115.47;7397951;19;20011;-71
2022/05/26 08:24:20;;;;;;;1.52;1.10;;;;;;;17.54;53.81;101113.31;7396697;19;20022;-71
2022/05/26 08:26:48;;;;;;;2.88;1.48;;;;;;;17.62;53.74;101121.81;7395964;19;20015;-71
2022/05/26 08:29:16;;;;;;;3.67;1.58;;;;;;;17.67;53.63;101117.16;7395924;19;20019;-71
2022/05/26 08:31:47;;;;;;;2.10;1.50;;;;;;;17.76;53.72;101121.16;7395993;19;20033;-71
2022/05/26 08:34:17;;;;;;;3.20;1.50;;;;;;;17.75;53.40;101138.91;7396835;19;20015;-71
2022/05/26 08:36:46;;;;;;;1.77;1.52;;;;;;;17.74;53.43;101150.44;7398018;19;20011;-70
2022/05/26 08:39:14;;;;;;;3.10;1.60;;;;;;;17.73;53.76;101148.72;7397433;19;20018;-70
2022/05/26 08:41:46;;;;;;;3.00;1.52;;;;;;;17.67;53.80;101169.38;7396810;19;20442;-71
2022/05/26 08:44:18;;;;;;;3.00;1.75;;;;;;;17.64;53.83;101164.19;7398528;19;20022;-71
2022/05/26 08:47:01;;;;;;;2.25;1.35;;;;;;;17.63;53.71;101168.63;7398506;19;20036;-70
2022/05/26 08:49:37;;;;;;;1.88;1.45;;;;;;;17.63;53.95;101133.25;7397601;19;20014;-69
2022/05/26 08:52:13;;;;;;;3.78;1.40;;;;;;;17.67;54.12;101143.69;7396204;19;20031;-69
2022/05/26 08:54:46;;;;;;;3.45;1.65;;;;;;;17.80;53.73;101143.13;7397707;19;20014;-69
2022/05/26 08:57:17;;;;;;;3.50;1.48;;;;;;;17.94;53.82;101154.00;7398354;19;20022;-70
2022/05/26 08:59:48;;;;;;;2.22;1.77;;;;;;;18.06;52.53;101132.19;7396030;19;20018;-70
2022/05/26 09:02:27;;;;;;;2.28;1.45;;;;;;;18.18;52.71;101141.34;7395673;19;20391;-70
2022/05/26 09:04:57;;;;;;;2.70;1.67;;;;;;;18.26;52.16;101142.78;7397987;19;20018;-70
2022/05/26 09:13:03;;;;;;;3.50;1.40;;;;;;;18.35;51.79;101171.56;7396967;19;20520;-70
2022/05/26 09:15:35;;;;;;;2.13;1.40;;;;;;;18.32;52.12;101161.94;7396940;19;20481;-69
2022/05/26 09:18:16;;;;;;;3.75;1.80;;;;;;;18.31;51.93;101170.88;7396688;19;20504;-70
2022/05/26 09:20:46;;;;;;;2.30;1.80;;;;;;;18.34;52.21;101191.13;7395241;19;20019;-70
2022/05/26 09:23:22;;;;;;;3.65;2.20;;;;;;;18.32;51.93;101167.25;7395637;19;20035;-72
2022/05/26 09:25:52;;;;;;;4.50;1.90;;;;;;;18.39;52.23;101163.38;7397703;19;20017;-72
2022/05/26 09:28:34;;;;;;;4.13;2.00;;;;;;;18.42;51.78;101156.22;7395247;19;20018;-72
2022/05/26 09:31:19;;;;;;;5.07;1.92;;;;;;;18.44;51.44;101187.09;7395496;19;20031;-72
2022/05/26 09:34:01;;;;;;;2.67;2.00;;;;;;;18.48;51.66;101162.09;7395817;19;20024;-70
2022/05/26 09:36:32;;;;;;;3.72;2.22;;;;;;;18.51;51.56;101177.00;7397281;19;20031;-72
2022/05/26 09:39:00;;;;;;;2.17;1.98;;;;;;;18.52;51.79;101161.00;7396086;19;20028;-72
2022/05/26 09:41:28;;;;;;;4.63;2.25;;;;;;;18.49;51.60;101162.97;7395685;19;20035;-72
2022/05/26 09:44:01;;;;;;;5.35;2.30;;;;;;;18.47;51.55;101159.50;7396043;19;20032;-71
2022/05/26 09:46:30;;;;;;;3.83;2.20;;;;;;;18.44;51.76;101186.19;7395942;19;20018;-72
2022/05/26 09:49:08;;;;;;;6.38;3.17;;;;;;;18.41;52.19;101181.91;7396789;19;20529;-70
2022/05/26 09:51:44;;;;;;;2.83;1.80;;;;;;;18.40;51.61;101170.41;7395808;19;20552;-69
2022/05/26 09:54:25;;;;;;;4.18;2.88;;;;;;;18.42;51.98;101165.03;7394845;19;20026;-70
2022/05/26 09:56:54;;;;;;;4.05;3.03;;;;;;;18.47;51.81;101170.13;7394776;19;20043;-73
2022/05/26 09:59:29;;;;;;;9.48;5.55;;;;;;;18.52;51.73;101176.09;7395310;19;20031;-72
2022/05/26 10:02:02;;;;;;;4.38;2.78;;;;;;;18.55;50.88;101178.56;7398289;19;20010;-76
2022/05/26 10:04:50;;;;;;;6.00;2.47;;;;;;;18.66;50.87;101164.78;7397134;19;20011;-74
2022/05/26 10:07:26;;;;;;;3.92;2.15;;;;;;;18.79;50.51;101176.53;7395237;19;20018;-70
2022/05/26 10:10:07;;;;;;;3.03;1.80;;;;;;;18.92;50.16;101160.00;7394266;19;20018;-71
2022/05/26 10:12:46;;;;;;;3.97;2.05;;;;;;;19.00;50.35;101176.44;7395768;19;20533;-72
2022/05/26 10:15:26;;;;;;;2.13;1.90;;;;;;;19.07;50.39;101158.34;7394186;19;20019;-73
2022/05/26 10:18:29;;;;;;;4.65;2.40;;;;;;;19.13;50.40;101158.94;7395978;19;20094;-72
2022/05/26 10:21:08;;;;;;;3.58;1.92;;;;;;;19.20;50.26;101164.78;7392528;19;20011;-71
2022/05/26 10:24:11;;;;;;;3.28;2.20;;;;;;;19.26;49.97;101156.50;7393966;19;20027;-72
2022/05/26 10:26:48;;;;;;;3.05;2.15;;;;;;;19.31;49.62;101154.44;7393575;19;20543;-72
2022/05/26 10:29:35;;;;;;;5.05;2.15;;;;;;;19.37;49.85;101163.91;7394102;19;20014;-74
2022/05/26 10:32:15;;;;;;;1.95;1.85;;;;;;;19.45;49.47;101168.81;7395189;19;20031;-73
2022/05/26 10:35:12;;;;;;;2.10;1.33;;;;;;;19.48;47.36;101168.66;7392943;19;20079;-73
2022/05/26 10:37:59;;;;;;;1.75;1.20;;;;;;;19.51;47.03;101190.66;7395076;19;20026;-73
2022/05/26 10:40:34;;;;;;;4.43;1.30;;;;;;;19.51;46.27;101158.72;7392955;19;20034;-73
2022/05/26 10:43:09;;;;;;;3.22;1.10;;;;;;;19.47;45.17;101181.09;7393638;19;20023;-72
2022/05/26 10:45:41;;;;;;;2.17;0.80;;;;;;;19.42;45.33;101168.97;7394987;19;20015;-72
2022/05/26 10:48:17;;;;;;;3.80;1.17;;;;;;;19.39;44.68;101159.38;7391952;19;20484;-73
2022/05/26 10:50:52;;;;;;;0.82;0.70;;;;;;;19.40;45.03;101166.41;7392068;19;20376;-72
2022/05/26 10:53:30;;;;;;;1.77;0.70;;;;;;;19.39;45.29;101154.03;7394416;19;20031;-72
2022/05/26 10:56:10;;;;;;;2.83;1.20;;;;;;;19.42;45.07;101166.31;7394472;19;20058;-70
2022/05/26 10:58:42;;;;;;;2.42;1.40;;;;;;;19.45;45.23;101158.16;7394396;19;20018;-71
2022/05/26 11:01:16;;;;;;;1.50;1.03;;;;;;;19.50;44.94;101174.78;7394155;19;20062;-70
2022/05/26 11:03:49;;;;;;;2.92;0.85;;;;;;;19.58;45.33;101161.91;7392154;19;20482;-70
2022/05/26 11:06:25;;;;;;;2.50;0.98;;;;;;;19.69;45.51;101156.88;7394326;19;20079;-71
2022/05/26 11:09:02;;;;;;;4.30;1.15;;;;;;;19.82;44.85;101162.44;7393825;19;20040;-70
2022/05/26 11:11:39;;;;;;;3.15;1.23;;;;;;;19.88;44.59;101150.59;7394019;19;20014;-71
2022/05/26 11:17:21;;;;;;;3.30;1.10;;;;;;;19.93;45.11;101150.31;7394011;19;20015;-70
2022/05/26 11:19:48;;;;;;;2.03;1.40;;;;;;;19.94;44.86;101158.25;7400231;19;20025;-71
2022/05/26 11:22:17;;;;;;;2.80;1.30;;;;;;;19.96;44.90;101177.66;7400127;19;20033;-72
2022/05/26 11:24:53;;;;;;;4.03;1.50;;;;;;;19.94;43.40;101170.69;7398220;19;20018;-70
2022/05/26 11:27:27;;;;;;;3.78;1.30;;;;;;;19.93;43.42;101159.19;7401190;19;20086;-70
2022/05/26 11:29:59;;;;;;;2.58;1.33;;;;;;;19.95;43.63;101215.03;7399210;19;20035;-73
2022/05/26 11:38:04;;;;;;;4.80;1.33;;;;;;;19.79;43.22;101170.56;7400202;19;20492;-71
2022/05/26 11:40:45;;;;;;;3.45;1.20;;;;;;;19.76;43.66;101173.38;7397885;19;20022;-70
2022/05/26 11:43:13;;;;;;;2.20;1.35;;;;;;;19.74;44.32;101163.75;7398794;19;20031;-70
2022/05/26 11:45:52;;;;;;;5.40;1.30;;;;;;;19.74;44.12;101169.06;7397252;19;20499;-70
2022/05/26 11:48:46;;;;;;;6.00;1.60;;;;;;;19.68;44.17;101172.94;7400164;19;20036;-70
2022/05/26 11:51:38;;;;;;;2.63;1.30;;;;;;;19.59;43.54;101186.72;7400489;19;20018;-70
2022/05/26 11:54:07;;;;;;;3.33;1.38;;;;;;;19.48;44.21;101171.31;7400142;19;20014;-70
2022/05/26 11:56:49;;;;;;;2.22;1.50;;;;;;;19.34;44.24;101188.00;7397470;19;20022;-70
2022/05/26 11:59:23;;;;;;;1.65;1.13;;;;;;;19.20;44.88;101204.69;7398828;19;20477;-69
2022/05/26 12:02:29;;;;;;;1.83;1.45;;;;;;;19.08;45.82;101199.97;7400269;19;20025;-70
2022/05/26 12:04:57;;;;;;;2.42;1.40;;;;;;;18.92;45.95;101197.22;7399848;19;20015;-70
2022/05/26 12:07:39;;;;;;;3.58;1.85;;;;;;;18.76;46.70;101187.31;7399199;19;20408;-68
2022/05/26 12:10:22;;;;;;;4.55;1.63;;;;;;;18.68;47.19;101194.81;7397238;19;20018;-68
2022/05/26 12:12:50;;;;;;;4.63;1.85;;;;;;;18.71;46.58;101184.88;7399656;19;20019;-70
2022/05/26 12:15:23;;;;;;;5.32;1.77;;;;;;;18.80;46.67;101182.72;7399040;19;20023;-70
2022/05/26 12:17:55;;;;;;;3.47;1.88;;;;;;;18.92;46.62;101181.25;7399006;19;20414;-71
2022/05/26 12:20:33;;;;;;;3.60;1.67;;;;;;;19.11;46.42;101191.81;7397336;19;20507;-68
2022/05/26 12:23:27;;;;;;;4.70;2.10;;;;;;;19.37;45.21;101167.44;7397458;19;20484;-69
2022/05/26 12:26:30;;;;;;;3.95;1.85;;;;;;;19.73;43.91;101154.91;7398577;19;20014;-71
2022/05/26 12:29:18;;;;;;;4.57;1.75;;;;;;;20.15;43.11;101150.88;7397880;19;20026;-69
2022/05/26 12:32:08;;;;;;;1.92;0.85;;;;;;;20.55;39.17;101152.22;7398401;19;20052;-69